createdAt,value
2022-08-29T00:02:58.207Z,18.54
2022-08-29T00:06:10.269Z,18.48
2022-08-29T00:09:16.307Z,18.46
2022-08-29T00:12:23.567Z,18.46
2022-08-29T00:15:30.207Z,18.49
2022-08-29T00:18:37.709Z,18.49
2022-08-29T00:21:46.518Z,18.49
2022-08-29T00:24:53.291Z,18.54
2022-08-29T00:27:59.198Z,18.52
2022-08-29T00:31:07.414Z,18.50
2022-08-29T00:34:13.296Z,18.51
2022-08-29T00:37:22.954Z,18.57
2022-08-29T00:40:34.062Z,18.66
2022-08-29T00:43:41.546Z,18.63
2022-08-29T00:46:53.045Z,18.48
2022-08-29T00:50:00.807Z,18.44
2022-08-29T00:53:17.485Z,18.41
2022-08-29T00:56:24.859Z,18.39
2022-08-29T00:59:36.070Z,18.39
2022-08-29T01:02:44.309Z,18.38
2022-08-29T01:05:50.956Z,18.36
2022-08-29T01:09:00.889Z,18.32
2022-08-29T01:12:20.958Z,18.29
2022-08-29T01:15:29.158Z,18.52
2022-08-29T01:18:37.356Z,18.65
2022-08-29T01:21:53.302Z,18.70
2022-08-29T01:25:03.173Z,18.72
2022-08-29T01:28:14.393Z,18.69
2022-08-29T01:31:49.882Z,18.67
2022-08-29T01:34:51.768Z,18.64
2022-08-29T01:37:58.105Z,18.68
2022-08-29T01:41:08.460Z,18.66
2022-08-29T01:44:19.319Z,18.53
2022-08-29T01:47:27.366Z,18.58
2022-08-29T01:50:35.171Z,18.55
2022-08-29T01:53:41.252Z,18.51
2022-08-29T01:56:54.776Z,18.56
2022-08-29T02:00:00.938Z,18.56
2022-08-29T02:03:08.682Z,18.59
2022-08-29T02:06:15.835Z,18.59
2022-08-29T02:09:22.569Z,18.52
2022-08-29T02:12:33.606Z,18.53
2022-08-29T02:15:40.488Z,18.49
2022-08-29T02:18:47.123Z,18.44
2022-08-29T02:21:54.652Z,18.45
2022-08-29T02:25:00.559Z,18.43
2022-08-29T02:28:12.254Z,18.37
2022-08-29T02:31:18.309Z,18.11
2022-08-29T02:34:25.285Z,18.07
2022-08-29T02:37:31.579Z,18.19
2022-08-29T02:40:38.972Z,18.31
2022-08-29T02:43:47.936Z,18.33
2022-08-29T02:46:54.880Z,18.32
2022-08-29T02:50:00.786Z,18.30
2022-08-29T02:53:09.264Z,18.26
2022-08-29T02:56:15.205Z,18.27
2022-08-29T02:59:24.992Z,18.26
2022-08-29T03:02:30.973Z,18.28
2022-08-29T03:05:38.247Z,18.24
2022-08-29T03:08:44.507Z,18.21
2022-08-29T03:11:52.854Z,18.23
2022-08-29T03:15:03.381Z,18.25
2022-08-29T03:18:10.651Z,18.24
2022-08-29T03:21:22.736Z,18.05
2022-08-29T03:24:29.879Z,17.94
2022-08-29T03:27:37.220Z,17.91
2022-08-29T03:30:47.662Z,17.92
2022-08-29T03:33:53.551Z,17.90
2022-08-29T03:37:00.641Z,17.86
2022-08-29T03:40:10.357Z,17.80
2022-08-29T03:43:17.306Z,17.78
2022-08-29T03:46:27.704Z,17.74
2022-08-29T03:49:34.509Z,17.73
2022-08-29T03:52:40.826Z,17.70
2022-08-29T03:55:48.050Z,17.68
2022-08-29T03:58:54.213Z,17.68
2022-08-29T04:02:04.467Z,17.94
2022-08-29T04:05:12.408Z,17.98
2022-08-29T04:08:19.280Z,17.99
2022-08-29T04:11:28.375Z,17.99
2022-08-29T04:14:35.612Z,18.00
2022-08-29T04:17:52.651Z,17.99
2022-08-29T04:21:06.161Z,17.98
2022-08-29T04:24:12.198Z,17.96
2022-08-29T04:27:19.114Z,17.94
2022-08-29T04:30:28.863Z,17.86
2022-08-29T04:33:38.649Z,17.90
2022-08-29T04:36:47.420Z,17.91
2022-08-29T04:39:54.891Z,17.94
2022-08-29T04:43:03.111Z,17.95
2022-08-29T04:46:24.160Z,17.91
2022-08-29T04:49:33.337Z,17.88
2022-08-29T04:52:40.236Z,17.91
2022-08-29T04:55:46.407Z,17.88
2022-08-29T04:58:53.820Z,17.88
2022-08-29T05:02:00.195Z,17.89
2022-08-29T05:05:14.113Z,17.88
2022-08-29T05:08:21.209Z,17.85
2022-08-29T05:11:28.802Z,17.87
2022-08-29T05:14:35.361Z,17.82
2022-08-29T05:17:42.302Z,17.79
2022-08-29T05:20:52.488Z,17.79
2022-08-29T05:24:00.017Z,17.80
2022-08-29T05:27:11.621Z,17.91
2022-08-29T05:30:34.313Z,17.88
2022-08-29T05:33:41.323Z,17.91
2022-08-29T05:36:51.573Z,17.92
2022-08-29T05:39:59.549Z,17.96
2022-08-29T05:43:07.861Z,17.96
2022-08-29T05:46:14.676Z,17.92
2022-08-29T05:49:27.600Z,17.92
2022-08-29T05:52:36.823Z,17.88
2022-08-29T05:55:44.509Z,17.87
2022-08-29T05:58:50.443Z,17.93
2022-08-29T06:01:57.205Z,17.95
2022-08-29T06:05:04.898Z,18.01
2022-08-29T06:08:14.854Z,18.12
2022-08-29T06:11:26.089Z,18.21
2022-08-29T06:14:33.762Z,18.27
2022-08-29T06:17:40.089Z,18.46
2022-08-29T06:20:47.548Z,18.66
2022-08-29T06:23:56.309Z,18.82
2022-08-29T06:27:06.168Z,18.88
2022-08-29T06:30:12.986Z,19.00
2022-08-29T06:33:19.928Z,19.00
2022-08-29T06:36:26.244Z,19.08
2022-08-29T06:39:35.883Z,19.08
2022-08-29T06:42:42.572Z,19.14
2022-08-29T06:45:49.519Z,19.01
2022-08-29T06:48:56.877Z,18.71
2022-08-29T06:52:03.761Z,18.63
2022-08-29T06:55:14.825Z,18.59
2022-08-29T06:58:22.371Z,18.56
2022-08-29T07:01:29.201Z,18.66
2022-08-29T07:04:36.395Z,18.90
2022-08-29T07:07:42.740Z,19.02
2022-08-29T07:10:52.770Z,19.10
2022-08-29T07:14:00.397Z,19.20
2022-08-29T07:17:09.357Z,19.33
2022-08-29T07:20:15.559Z,19.33
2022-08-29T07:23:22.358Z,19.34
2022-08-29T07:26:33.757Z,19.29
2022-08-29T07:29:41.653Z,19.25
2022-08-29T07:32:48.263Z,19.22
2022-08-29T07:35:55.187Z,19.17
2022-08-29T07:39:01.012Z,19.16
2022-08-29T07:42:11.694Z,19.27
2022-08-29T07:45:18.407Z,19.49
2022-08-29T07:48:25.457Z,19.59
2022-08-29T07:51:32.432Z,19.59
2022-08-29T07:54:39.364Z,19.52
2022-08-29T07:57:48.796Z,19.48
2022-08-29T08:00:56.073Z,19.60
2022-08-29T08:04:03.188Z,19.80
2022-08-29T08:07:13.807Z,19.91
2022-08-29T08:10:20.999Z,19.86
2022-08-29T08:13:50.068Z,19.81
2022-08-29T08:17:03.103Z,19.77
2022-08-29T08:20:11.859Z,19.91
2022-08-29T08:23:19.243Z,20.15
2022-08-29T08:26:26.954Z,19.84
2022-08-29T08:29:35.702Z,19.98
2022-08-29T08:32:46.429Z,20.22
2022-08-29T08:35:53.492Z,20.30
2022-08-29T08:39:03.353Z,20.32
2022-08-29T08:42:24.711Z,20.29
2022-08-29T08:45:39.570Z,20.28
2022-08-29T08:48:46.710Z,20.24
2022-08-29T08:52:00.170Z,20.05
2022-08-29T08:55:17.542Z,20.12
2022-08-29T08:58:35.154Z,20.16
2022-08-29T09:01:48.501Z,20.20
2022-08-29T09:05:08.185Z,20.02
2022-08-29T09:08:25.260Z,20.01
2022-08-29T09:11:42.702Z,20.09
2022-08-29T09:15:00.619Z,20.16
2022-08-29T09:18:18.052Z,20.18
2022-08-29T09:21:43.162Z,20.36
2022-08-29T09:24:54.037Z,20.24
2022-08-29T09:28:03.366Z,20.06
2022-08-29T09:31:22.961Z,20.02
2022-08-29T09:35:07.306Z,20.16
2022-08-29T09:38:11.506Z,20.20
2022-08-29T09:41:31.356Z,20.31
2022-08-29T09:44:39.162Z,20.42
2022-08-29T09:47:45.711Z,20.47
2022-08-29T09:50:55.395Z,20.51
2022-08-29T09:54:16.908Z,20.61
2022-08-29T09:57:26.405Z,20.58
2022-08-29T10:00:36.667Z,20.69
2022-08-29T10:03:46.406Z,20.81
2022-08-29T10:06:55.482Z,20.86
2022-08-29T10:10:07.030Z,20.83
2022-08-29T10:13:21.359Z,20.94
2022-08-29T10:16:40.094Z,20.97
2022-08-29T10:19:46.329Z,20.80
2022-08-29T10:23:04.393Z,20.80
2022-08-29T10:26:21.072Z,20.79
2022-08-29T10:29:41.539Z,20.80
2022-08-29T10:33:17.011Z,20.82
2022-08-29T10:36:31.356Z,20.96
2022-08-29T10:39:48.779Z,21.19
2022-08-29T10:43:11.352Z,21.35
2022-08-29T10:46:39.475Z,21.38
2022-08-29T10:50:03.648Z,21.29
2022-08-29T10:53:18.129Z,21.36
2022-08-29T10:56:31.670Z,21.45
2022-08-29T11:00:03.052Z,21.26
2022-08-29T11:03:16.757Z,21.10
2022-08-29T11:06:27.321Z,21.14
2022-08-29T11:09:40.647Z,21.10
2022-08-29T11:12:56.502Z,20.91
2022-08-29T11:16:16.591Z,20.87
2022-08-29T11:19:28.136Z,21.05
2022-08-29T11:22:39.600Z,21.23
2022-08-29T11:25:46.952Z,21.43
2022-08-29T11:29:01.388Z,21.32
2022-08-29T11:32:13.061Z,21.19
2022-08-29T11:35:25.583Z,21.15
2022-08-29T11:39:17.754Z,21.14
2022-08-29T11:46:03.772Z,21.28
2022-08-29T11:49:30.504Z,21.35
2022-08-29T11:52:38.691Z,21.35
2022-08-29T11:55:48.379Z,21.42
2022-08-29T11:58:56.745Z,21.43
2022-08-29T12:02:07.433Z,21.44
2022-08-29T12:05:48.706Z,21.56
2022-08-29T12:09:05.804Z,21.63
2022-08-29T12:12:42.208Z,21.75
2022-08-29T12:15:57.280Z,21.85
2022-08-29T12:19:06.371Z,21.94
2022-08-29T12:22:22.424Z,21.91
2022-08-29T12:26:16.277Z,21.88
2022-08-29T12:29:28.134Z,21.79
2022-08-29T12:32:50.876Z,21.75
2022-08-29T12:36:27.437Z,21.75
2022-08-29T12:39:54.514Z,21.67
2022-08-29T12:43:20.565Z,21.70
2022-08-29T12:46:32.502Z,21.67
2022-08-29T12:49:48.754Z,21.84
2022-08-29T12:53:08.663Z,21.99
2022-08-29T12:56:19.862Z,22.00
2022-08-29T12:59:28.980Z,21.89
2022-08-29T13:02:39.042Z,21.94
2022-08-29T13:05:45.133Z,22.07
2022-08-29T13:08:55.040Z,22.14
2022-08-29T13:12:16.434Z,22.21
2022-08-29T13:15:30.838Z,22.23
2022-08-29T13:18:53.971Z,22.21
2022-08-29T13:22:08.919Z,22.29
2022-08-29T13:25:19.705Z,22.37
2022-08-29T13:28:38.502Z,22.53
2022-08-29T13:31:44.699Z,22.56
2022-08-29T13:35:08.281Z,22.61
2022-08-29T13:38:22.435Z,22.59
2022-08-29T13:41:32.986Z,22.51
2022-08-29T13:44:52.175Z,22.43
2022-08-29T13:48:10.276Z,22.37
2022-08-29T13:51:16.789Z,22.30
2022-08-29T13:54:24.207Z,22.19
2022-08-29T13:57:35.069Z,22.19
2022-08-29T14:00:42.170Z,22.19
2022-08-29T14:03:49.358Z,22.20
2022-08-29T14:07:00.098Z,22.19
2022-08-29T14:10:10.127Z,22.20
2022-08-29T14:13:19.984Z,22.21
2022-08-29T14:16:26.667Z,22.20
2022-08-29T14:19:34.628Z,22.19
2022-08-29T14:22:41.985Z,22.26
2022-08-29T14:25:49.242Z,22.36
2022-08-29T14:29:03.298Z,22.35
2022-08-29T14:32:11.043Z,22.26
2022-08-29T14:35:26.468Z,22.27
2022-08-29T14:38:38.594Z,22.37
2022-08-29T14:41:45.052Z,22.50
2022-08-29T14:44:54.836Z,22.58
2022-08-29T14:48:01.145Z,22.55
2022-08-29T14:51:08.723Z,22.55
2022-08-29T14:54:15.241Z,22.45
2022-08-29T14:57:21.950Z,22.35
2022-08-29T15:00:34.287Z,22.26
2022-08-29T15:03:41.237Z,22.17
2022-08-29T15:06:47.700Z,22.15
2022-08-29T15:09:54.892Z,22.13
2022-08-29T15:13:01.107Z,22.08
2022-08-29T15:16:12.246Z,22.08
2022-08-29T15:22:45.024Z,22.09
2022-08-29T15:25:51.840Z,22.04
2022-08-29T15:28:59.142Z,22.07
2022-08-29T15:32:11.200Z,22.09
2022-08-29T15:35:18.117Z,22.02
2022-08-29T15:38:23.988Z,21.99
2022-08-29T15:41:30.818Z,22.09
2022-08-29T15:44:36.727Z,22.11
2022-08-29T15:47:46.642Z,22.15
2022-08-29T15:50:53.094Z,22.28
2022-08-29T15:54:00.146Z,22.60
2022-08-29T15:57:07.780Z,23.17
2022-08-29T16:00:18.476Z,23.63
2022-08-29T16:03:31.653Z,24.14
2022-08-29T16:06:39.075Z,24.59
2022-08-29T16:09:45.586Z,25.05
2022-08-29T16:12:52.336Z,25.33
2022-08-29T16:15:58.575Z,25.54
2022-08-29T16:19:10.462Z,25.69
2022-08-29T16:22:16.591Z,25.78
2022-08-29T16:25:24.439Z,25.89
2022-08-29T16:28:31.920Z,25.81
2022-08-29T16:31:39.903Z,25.68
2022-08-29T16:34:48.839Z,25.40
2022-08-29T16:38:02.631Z,24.95
2022-08-29T16:41:11.024Z,24.57
2022-08-29T16:44:17.783Z,24.18
2022-08-29T16:47:24.107Z,23.84
2022-08-29T16:50:38.727Z,23.51
2022-08-29T16:53:45.030Z,23.21
2022-08-29T16:56:52.001Z,22.96
2022-08-29T16:59:57.909Z,22.72
2022-08-29T17:03:06.103Z,22.48
2022-08-29T17:06:14.855Z,22.32
2022-08-29T17:09:20.277Z,22.16
2022-08-29T17:12:23.140Z,22.02
2022-08-29T17:15:28.746Z,21.86
2022-08-29T17:18:35.642Z,21.68
2022-08-29T17:21:45.803Z,21.50
2022-08-29T17:24:51.740Z,21.34
2022-08-29T17:28:17.037Z,21.21
2022-08-29T17:31:24.313Z,21.05
2022-08-29T17:34:31.486Z,20.93
2022-08-29T17:37:41.101Z,20.81
2022-08-29T17:40:49.141Z,20.69
2022-08-29T17:43:57.035Z,20.60
2022-08-29T17:47:04.385Z,20.51
2022-08-29T17:50:10.919Z,20.43
2022-08-29T17:53:21.692Z,20.34
2022-08-29T17:56:32.910Z,20.29
2022-08-29T17:59:40.900Z,20.23
2022-08-29T18:02:47.165Z,20.17
2022-08-29T18:05:53.977Z,20.11
2022-08-29T18:09:03.527Z,20.06
2022-08-29T18:12:11.789Z,20.02
2022-08-29T18:15:18.627Z,19.92
2022-08-29T18:18:25.500Z,19.84
2022-08-29T18:21:31.943Z,19.76
2022-08-29T18:24:41.772Z,19.70
2022-08-29T18:27:47.759Z,19.66
2022-08-29T18:31:00.060Z,19.59
2022-08-29T18:34:32.577Z,19.50
2022-08-29T18:37:39.820Z,19.38
2022-08-29T18:41:10.667Z,19.35
2022-08-29T18:44:17.741Z,19.25
2022-08-29T18:47:23.848Z,19.18
2022-08-29T18:50:40.270Z,19.14
2022-08-29T18:53:46.618Z,19.06
2022-08-29T18:56:56.396Z,18.99
2022-08-29T19:00:03.541Z,18.95
2022-08-29T19:03:10.888Z,18.94
2022-08-29T19:06:17.246Z,18.93
2022-08-29T19:09:24.694Z,18.86
2022-08-29T19:12:34.023Z,18.81
2022-08-29T19:15:42.340Z,18.79
2022-08-29T19:18:48.605Z,18.76
2022-08-29T19:21:52.832Z,18.73
2022-08-29T19:24:58.892Z,18.68
2022-08-29T19:28:10.627Z,18.63
2022-08-29T19:31:18.139Z,18.58
2022-08-29T19:34:25.087Z,18.54
2022-08-29T19:37:31.326Z,18.52
2022-08-29T19:40:39.503Z,18.49
2022-08-29T19:43:49.067Z,18.45
2022-08-29T19:46:55.834Z,18.40
2022-08-29T19:50:03.342Z,18.37
2022-08-29T19:53:10.600Z,18.34
2022-08-29T19:56:16.928Z,18.31
2022-08-29T19:59:26.761Z,18.29
2022-08-29T20:02:33.517Z,18.25
2022-08-29T20:05:41.164Z,18.23
2022-08-29T20:08:50.351Z,18.23
2022-08-29T20:11:58.431Z,18.24
2022-08-29T20:15:10.396Z,18.25
2022-08-29T20:18:19.995Z,18.26
2022-08-29T20:21:26.841Z,18.26
2022-08-29T20:24:36.459Z,18.27
2022-08-29T20:27:43.535Z,18.28
2022-08-29T20:30:53.100Z,18.25
2022-08-29T20:33:59.884Z,18.27
2022-08-29T20:37:14.464Z,18.20
2022-08-29T20:40:20.557Z,18.14
2022-08-29T20:43:27.303Z,18.06
2022-08-29T20:46:36.351Z,18.00
2022-08-29T20:49:44.087Z,17.91
2022-08-29T20:52:50.440Z,17.79
2022-08-29T20:55:59.093Z,17.70
2022-08-29T20:59:07.649Z,17.63
2022-08-29T21:02:17.776Z,17.57
2022-08-29T21:05:40.065Z,17.48
2022-08-29T21:08:46.737Z,17.38
2022-08-29T21:11:52.980Z,17.28
2022-08-29T21:15:00.042Z,17.25
2022-08-29T21:18:11.882Z,17.20
2022-08-29T21:21:20.341Z,17.15
2022-08-29T21:24:28.471Z,17.09
2022-08-29T21:27:35.898Z,17.02
2022-08-29T21:30:46.102Z,16.96
2022-08-29T21:33:55.859Z,16.89
2022-08-29T21:37:02.814Z,16.83
2022-08-29T21:40:10.862Z,16.77
2022-08-29T21:43:16.972Z,16.72
2022-08-29T21:46:26.199Z,16.68
2022-08-29T21:49:34.968Z,16.68
2022-08-29T21:52:41.932Z,16.68
2022-08-29T21:55:47.823Z,16.65
2022-08-29T21:58:56.376Z,16.63
2022-08-29T22:02:05.479Z,16.61
2022-08-29T22:05:15.556Z,16.57
2022-08-29T22:08:21.669Z,16.54
2022-08-29T22:11:37.324Z,16.54
2022-08-29T22:14:59.426Z,16.50
2022-08-29T22:18:07.329Z,16.48
2022-08-29T22:21:16.737Z,16.46
2022-08-29T22:24:23.631Z,16.44
2022-08-29T22:27:29.590Z,16.40
2022-08-29T22:30:36.978Z,16.35
2022-08-29T22:33:43.900Z,16.28
2022-08-29T22:36:53.488Z,16.28
2022-08-29T22:39:59.527Z,16.25
2022-08-29T22:43:09.284Z,16.22
2022-08-29T22:46:17.707Z,16.21
2022-08-29T22:49:33.139Z,16.18
2022-08-29T22:52:42.965Z,16.16
2022-08-29T22:55:49.925Z,16.16
2022-08-29T22:58:56.210Z,16.18
2022-08-29T23:02:03.844Z,16.17
2022-08-29T23:05:10.925Z,16.12
2022-08-29T23:08:21.270Z,16.10
2022-08-29T23:11:28.616Z,16.07
2022-08-29T23:14:36.095Z,16.03
2022-08-29T23:17:42.712Z,16.01
2022-08-29T23:20:49.735Z,16.01
2022-08-29T23:23:59.545Z,16.01
2022-08-29T23:27:06.769Z,15.95
2022-08-29T23:30:16.075Z,15.92
2022-08-29T23:33:23.017Z,15.85
2022-08-29T23:36:29.182Z,15.79
2022-08-29T23:39:39.753Z,15.76
2022-08-29T23:42:45.848Z,15.75
2022-08-29T23:45:53.034Z,15.76
2022-08-29T23:48:59.368Z,15.76
2022-08-29T23:52:06.567Z,15.75
2022-08-29T23:55:18.377Z,15.73
2022-08-29T23:58:25.291Z,15.68
